Burnt Corn, Alabama
Current Conditions -  °F | °C
As of 9:53 PM on Saturday 20 Dec 2014 (Local Time) from KGZH Reporting Station
Overcast Overcast  
Wind Chill: 52°   Ceiling: 800
Heat Index: 52°   Visibility: 9mi
Dew Point: 48°   Wind: 6mph
Humidity: 86%   Direction: 60°ENE
Pressure: 30.16"   Gusts: NA
Location:  31.55°N, 87.16°W
Report Text: KGZH 210353Z AUTO 06005KT 9SM OVC008 11/09 A3016 RMK AO2 SLP211 T01110089
Loading
Personal Weather Stations






























Interactive Weather Map New forecast layout! Learn more

10-Day Weather Forecast

Advertisements
Track Severe Weather on mobile